sensor_id;sensor_type;location;lat;lon;timestamp;pressure;altitude;pressure_sealevel;temperature;humidity
39051;BME280;24805;55.852;37.644;2023-11-21T00:01:25;98861.19;;;-5.32;52.17
39051;BME280;24805;55.852;37.644;2023-11-21T00:06:27;98871.63;;;-5.33;51.97
39051;BME280;24805;55.852;37.644;2023-11-21T00:11:29;98871.72;;;-5.35;51.82
39051;BME280;24805;55.852;37.644;2023-11-21T00:16:31;98868.09;;;-5.32;52.30
39051;BME280;24805;55.852;37.644;2023-11-21T00:21:33;98879.94;;;-5.28;51.81
39051;BME280;24805;55.852;37.644;2023-11-21T00:26:36;98877.16;;;-5.25;52.03
39051;BME280;24805;55.852;37.644;2023-11-21T00:31:41;98874.19;;;-5.19;52.12
39051;BME280;24805;55.852;37.644;2023-11-21T00:36:44;98866.41;;;-5.19;51.83
39051;BME280;24805;55.852;37.644;2023-11-21T00:41:46;98872.91;;;-5.26;51.14
39051;BME280;24805;55.852;37.644;2023-11-21T00:46:48;98865.53;;;-5.32;51.37
39051;BME280;24805;55.852;37.644;2023-11-21T00:51:51;98857.31;;;-5.39;52.15
39051;BME280;24805;55.852;37.644;2023-11-21T00:56:53;98860.47;;;-5.48;51.52
39051;BME280;24805;55.852;37.644;2023-11-21T01:01:55;98862.78;;;-5.43;51.45
39051;BME280;24805;55.852;37.644;2023-11-21T01:06:57;98861.22;;;-5.46;52.04
39051;BME280;24805;55.852;37.644;2023-11-21T01:11:59;98860.28;;;-5.45;51.53
39051;BME280;24805;55.852;37.644;2023-11-21T01:17:02;98858.44;;;-5.43;51.67
39051;BME280;24805;55.852;37.644;2023-11-21T01:22:06;98868.69;;;-5.41;51.64
39051;BME280;24805;55.852;37.644;2023-11-21T01:27:09;98859.72;;;-5.36;52.40
39051;BME280;24805;55.852;37.644;2023-11-21T01:32:11;98852.16;;;-5.53;51.61
39051;BME280;24805;55.852;37.644;2023-11-21T01:37:13;98858.63;;;-5.60;51.46
39051;BME280;24805;55.852;37.644;2023-11-21T01:42:15;98869.50;;;-5.55;52.38
39051;BME280;24805;55.852;37.644;2023-11-21T01:47:18;98855.84;;;-5.57;51.98
39051;BME280;24805;55.852;37.644;2023-11-21T01:52:20;98868.41;;;-5.51;52.31
39051;BME280;24805;55.852;37.644;2023-11-21T01:57:22;98872.38;;;-5.45;51.53
39051;BME280;24805;55.852;37.644;2023-11-21T02:02:24;98862.59;;;-5.40;51.47
39051;BME280;24805;55.852;37.644;2023-11-21T02:07:26;98866.28;;;-5.44;50.43
39051;BME280;24805;55.852;37.644;2023-11-21T02:12:28;98863.06;;;-5.48;50.69
39051;BME280;24805;55.852;37.644;2023-11-21T02:17:31;98857.13;;;-5.50;50.20
39051;BME280;24805;55.852;37.644;2023-11-21T02:22:37;98852.06;;;-5.51;51.07
39051;BME280;24805;55.852;37.644;2023-11-21T02:27:42;98860.09;;;-5.56;50.76
39051;BME280;24805;55.852;37.644;2023-11-21T02:32:45;98860.47;;;-5.62;50.31
39051;BME280;24805;55.852;37.644;2023-11-21T02:37:50;98830.94;;;-5.86;50.83
39051;BME280;24805;55.852;37.644;2023-11-21T02:42:52;98866.44;;;-5.76;50.86
39051;BME280;24805;55.852;37.644;2023-11-21T02:47:54;98834.75;;;-5.92;50.69
39051;BME280;24805;55.852;37.644;2023-11-21T02:53:00;98887.03;;;-5.74;50.37
39051;BME280;24805;55.852;37.644;2023-11-21T02:58:02;98884.53;;;-5.76;50.43
39051;BME280;24805;55.852;37.644;2023-11-21T03:03:08;98890.53;;;-5.75;50.25
39051;BME280;24805;55.852;37.644;2023-11-21T03:08:10;98855.84;;;-5.85;50.16
39051;BME280;24805;55.852;37.644;2023-11-21T03:13:12;98882.25;;;-5.80;50.59
39051;BME280;24805;55.852;37.644;2023-11-21T03:18:15;98885.00;;;-5.83;50.77
39051;BME280;24805;55.852;37.644;2023-11-21T03:23:18;98890.25;;;-5.85;50.92
39051;BME280;24805;55.852;37.644;2023-11-21T03:28:20;98885.94;;;-5.84;50.95
39051;BME280;24805;55.852;37.644;2023-11-21T03:33:22;98889.06;;;-5.79;51.03
39051;BME280;24805;55.852;37.644;2023-11-21T03:38:25;98883.16;;;-5.81;50.71
39051;BME280;24805;55.852;37.644;2023-11-21T03:43:27;98895.34;;;-5.83;51.46
39051;BME280;24805;55.852;37.644;2023-11-21T03:48:30;98902.91;;;-5.80;51.17
39051;BME280;24805;55.852;37.644;2023-11-21T03:53:32;98907.81;;;-5.90;51.16
39051;BME280;24805;55.852;37.644;2023-11-21T03:58:34;98910.94;;;-5.85;51.25
39051;BME280;24805;55.852;37.644;2023-11-21T04:03:36;98901.97;;;-5.79;51.57
39051;BME280;24805;55.852;37.644;2023-11-21T04:08:39;98904.19;;;-5.73;51.85
39051;BME280;24805;55.852;37.644;2023-11-21T04:13:41;98919.78;;;-5.75;51.61
39051;BME280;24805;55.852;37.644;2023-11-21T04:18:44;98897.63;;;-5.79;51.24
39051;BME280;24805;55.852;37.644;2023-11-21T04:23:46;98917.47;;;-5.79;51.92
39051;BME280;24805;55.852;37.644;2023-11-21T04:28:48;98916.56;;;-5.78;52.23
39051;BME280;24805;55.852;37.644;2023-11-21T04:33:50;98916.38;;;-5.75;52.29
39051;BME280;24805;55.852;37.644;2023-11-21T04:38:53;98916.66;;;-5.80;51.78
39051;BME280;24805;55.852;37.644;2023-11-21T04:43:55;98927.00;;;-5.80;52.30
39051;BME280;24805;55.852;37.644;2023-11-21T04:48:57;98941.75;;;-5.82;51.42
39051;BME280;24805;55.852;37.644;2023-11-21T04:53:59;98936.75;;;-5.85;51.99
39051;BME280;24805;55.852;37.644;2023-11-21T04:59:02;98945.44;;;-5.86;52.19
39051;BME280;24805;55.852;37.644;2023-11-21T05:04:04;98944.69;;;-5.88;52.53
39051;BME280;24805;55.852;37.644;2023-11-21T05:09:08;98914.63;;;-6.03;51.80
39051;BME280;24805;55.852;37.644;2023-11-21T05:14:13;98945.19;;;-5.81;52.57
39051;BME280;24805;55.852;37.644;2023-11-21T05:19:16;98951.19;;;-5.81;52.60
39051;BME280;24805;55.852;37.644;2023-11-21T05:24:18;98960.59;;;-5.80;51.98
39051;BME280;24805;55.852;37.644;2023-11-21T05:29:20;98943.50;;;-5.82;52.03
39051;BME280;24805;55.852;37.644;2023-11-21T05:34:22;98958.09;;;-5.81;51.90
39051;BME280;24805;55.852;37.644;2023-11-21T05:39:25;98947.28;;;-5.74;52.67
39051;BME280;24805;55.852;37.644;2023-11-21T05:44:29;98935.94;;;-5.71;52.05
39051;BME280;24805;55.852;37.644;2023-11-21T05:49:32;98939.63;;;-5.75;52.29
39051;BME280;24805;55.852;37.644;2023-11-21T05:54:34;98948.03;;;-5.72;51.96
39051;BME280;24805;55.852;37.644;2023-11-21T05:59:36;98946.63;;;-5.77;53.00
39051;BME280;24805;55.852;37.644;2023-11-21T06:04:38;98954.13;;;-5.73;52.71
39051;BME280;24805;55.852;37.644;2023-11-21T06:09:40;98956.53;;;-5.70;53.09
39051;BME280;24805;55.852;37.644;2023-11-21T06:14:43;98962.63;;;-5.71;54.21
39051;BME280;24805;55.852;37.644;2023-11-21T06:19:45;98968.19;;;-5.63;55.36
39051;BME280;24805;55.852;37.644;2023-11-21T06:24:47;98973.38;;;-5.48;54.31
39051;BME280;24805;55.852;37.644;2023-11-21T06:29:49;98963.69;;;-5.31;54.88
39051;BME280;24805;55.852;37.644;2023-11-21T06:34:52;98966.00;;;-5.12;54.72
39051;BME280;24805;55.852;37.644;2023-11-21T06:39:58;98967.56;;;-4.81;54.22
39051;BME280;24805;55.852;37.644;2023-11-21T06:45:00;98978.13;;;-4.57;53.49
39051;BME280;24805;55.852;37.644;2023-11-21T06:50:08;98991.41;;;-4.49;53.13
39051;BME280;24805;55.852;37.644;2023-11-21T06:55:10;98983.47;;;-4.46;52.52
39051;BME280;24805;55.852;37.644;2023-11-21T07:00:14;98989.56;;;-4.47;52.40
39051;BME280;24805;55.852;37.644;2023-11-21T07:05:17;98972.50;;;-4.64;52.03
39051;BME280;24805;55.852;37.644;2023-11-21T07:10:23;98984.16;;;-4.71;53.14
39051;BME280;24805;55.852;37.644;2023-11-21T07:15:25;98981.66;;;-4.72;52.96
39051;BME280;24805;55.852;37.644;2023-11-21T07:20:27;98981.84;;;-4.75;52.44
39051;BME280;24805;55.852;37.644;2023-11-21T07:25:32;98995.44;;;-4.72;51.66
39051;BME280;24805;55.852;37.644;2023-11-21T07:30:35;98996.09;;;-4.68;52.22
39051;BME280;24805;55.852;37.644;2023-11-21T07:35:37;98992.66;;;-4.69;51.14
39051;BME280;24805;55.852;37.644;2023-11-21T07:40:40;98983.59;;;-4.76;51.76
39051;BME280;24805;55.852;37.644;2023-11-21T07:45:42;98996.38;;;-4.87;51.17
39051;BME280;24805;55.852;37.644;2023-11-21T07:50:47;98962.09;;;-4.91;51.68
39051;BME280;24805;55.852;37.644;2023-11-21T07:55:49;98992.50;;;-4.39;51.64
39051;BME280;24805;55.852;37.644;2023-11-21T08:00:52;98984.41;;;-3.80;50.88
39051;BME280;24805;55.852;37.644;2023-11-21T08:05:54;98984.81;;;-2.60;49.20
39051;BME280;24805;55.852;37.644;2023-11-21T08:10:56;98985.03;;;-1.67;47.53
39051;BME280;24805;55.852;37.644;2023-11-21T08:15:59;98976.38;;;-1.22;46.03
39051;BME280;24805;55.852;37.644;2023-11-21T08:21:04;98966.09;;;-1.23;45.44
39051;BME280;24805;55.852;37.644;2023-11-21T08:26:07;98958.28;;;-1.01;44.87
39051;BME280;24805;55.852;37.644;2023-11-21T08:31:10;98974.47;;;-0.53;43.24
39051;BME280;24805;55.852;37.644;2023-11-21T08:36:15;98969.16;;;-0.74;42.63
39051;BME280;24805;55.852;37.644;2023-11-21T08:41:18;98956.59;;;-1.13;43.39
39051;BME280;24805;55.852;37.644;2023-11-21T08:46:23;98967.13;;;-1.83;45.52
39051;BME280;24805;55.852;37.644;2023-11-21T08:51:28;98934.69;;;-2.49;46.86
39051;BME280;24805;55.852;37.644;2023-11-21T08:56:30;98954.59;;;-2.61;46.76
39051;BME280;24805;55.852;37.644;2023-11-21T09:01:32;98973.75;;;-2.87;47.00
39051;BME280;24805;55.852;37.644;2023-11-21T09:06:35;98979.16;;;-3.16;47.16
39051;BME280;24805;55.852;37.644;2023-11-21T09:11:37;98984.97;;;-3.50;47.64
39051;BME280;24805;55.852;37.644;2023-11-21T09:16:39;98991.47;;;-3.70;48.65
39051;BME280;24805;55.852;37.644;2023-11-21T09:21:41;98987.84;;;-3.80;48.82
39051;BME280;24805;55.852;37.644;2023-11-21T09:26:44;98990.84;;;-3.73;48.47
39051;BME280;24805;55.852;37.644;2023-11-21T09:31:47;98995.94;;;-3.72;48.91
39051;BME280;24805;55.852;37.644;2023-11-21T09:36:49;98982.75;;;-3.82;48.80
39051;BME280;24805;55.852;37.644;2023-11-21T09:41:57;98987.84;;;-3.80;49.63
39051;BME280;24805;55.852;37.644;2023-11-21T09:47:02;98976.47;;;-4.04;49.59
39051;BME280;24805;55.852;37.644;2023-11-21T09:52:06;99009.06;;;-3.88;49.44
39051;BME280;24805;55.852;37.644;2023-11-21T09:57:11;99007.50;;;-3.90;49.13
39051;BME280;24805;55.852;37.644;2023-11-21T10:02:13;99015.63;;;-3.82;49.11
39051;BME280;24805;55.852;37.644;2023-11-21T10:07:17;99013.25;;;-3.72;49.27
39051;BME280;24805;55.852;37.644;2023-11-21T10:12:21;99007.63;;;-3.79;49.01
39051;BME280;24805;55.852;37.644;2023-11-21T10:17:27;99020.94;;;-3.71;49.33
39051;BME280;24805;55.852;37.644;2023-11-21T10:22:32;99008.59;;;-3.80;49.24
39051;BME280;24805;55.852;37.644;2023-11-21T10:27:37;99023.69;;;-3.87;49.31
39051;BME280;24805;55.852;37.644;2023-11-21T10:32:41;99017.66;;;-4.00;49.54
39051;BME280;24805;55.852;37.644;2023-11-21T10:37:59;99003.34;;;-3.93;49.01
39051;BME280;24805;55.852;37.644;2023-11-21T10:43:06;99003.22;;;-4.04;49.59
39051;BME280;24805;55.852;37.644;2023-11-21T10:48:14;98979.81;;;-4.29;49.43
39051;BME280;24805;55.852;37.644;2023-11-21T10:53:19;99015.91;;;-4.13;49.46
39051;BME280;24805;55.852;37.644;2023-11-21T10:58:23;99022.56;;;-4.09;49.18
39051;BME280;24805;55.852;37.644;2023-11-21T11:03:25;99019.25;;;-4.11;49.54
39051;BME280;24805;55.852;37.644;2023-11-21T11:08:28;99020.44;;;-4.17;49.54
39051;BME280;24805;55.852;37.644;2023-11-21T11:13:31;99020.56;;;-4.19;49.33
39051;BME280;24805;55.852;37.644;2023-11-21T11:18:33;99004.41;;;-4.22;49.57
39051;BME280;24805;55.852;37.644;2023-11-21T11:23:44;99010.34;;;-4.34;49.31
39051;BME280;24805;55.852;37.644;2023-11-21T11:29:06;99025.22;;;-4.24;49.66
39051;BME280;24805;55.852;37.644;2023-11-21T11:34:32;99016.81;;;-4.27;49.52
39051;BME280;24805;55.852;37.644;2023-11-21T11:39:40;99037.47;;;-4.40;49.34
39051;BME280;24805;55.852;37.644;2023-11-21T11:44:48;99045.56;;;-4.32;49.47
39051;BME280;24805;55.852;37.644;2023-11-21T11:50:15;99041.59;;;-4.23;49.39
39051;BME280;24805;55.852;37.644;2023-11-21T11:55:23;99038.91;;;-4.36;49.16
39051;BME280;24805;55.852;37.644;2023-11-21T12:05:33;99046.63;;;-4.48;49.92
39051;BME280;24805;55.852;37.644;2023-11-21T12:10:38;99056.06;;;-4.47;49.16
39051;BME280;24805;55.852;37.644;2023-11-21T12:15:42;99052.91;;;-4.53;49.88
39051;BME280;24805;55.852;37.644;2023-11-21T12:20:44;99051.53;;;-4.58;49.76
39051;BME280;24805;55.852;37.644;2023-11-21T12:25:50;99046.00;;;-4.66;50.41
39051;BME280;24805;55.852;37.644;2023-11-21T12:30:52;99058.03;;;-4.65;50.44
39051;BME280;24805;55.852;37.644;2023-11-21T12:36:05;99073.06;;;-4.72;51.15
39051;BME280;24805;55.852;37.644;2023-11-21T12:41:10;99056.81;;;-4.74;50.26
39051;BME280;24805;55.852;37.644;2023-11-21T12:46:13;99071.25;;;-4.84;50.74
39051;BME280;24805;55.852;37.644;2023-11-21T12:51:21;99032.97;;;-5.07;51.14
39051;BME280;24805;55.852;37.644;2023-11-21T12:56:24;99065.69;;;-4.92;51.39
39051;BME280;24805;55.852;37.644;2023-11-21T13:01:26;99077.44;;;-4.87;50.20
39051;BME280;24805;55.852;37.644;2023-11-21T13:06:31;99067.81;;;-4.84;51.27
39051;BME280;24805;55.852;37.644;2023-11-21T13:11:37;99080.38;;;-4.78;50.93
39051;BME280;24805;55.852;37.644;2023-11-21T13:16:39;99086.59;;;-4.81;50.32
39051;BME280;24805;55.852;37.644;2023-11-21T13:21:47;99099.53;;;-4.81;50.89
39051;BME280;24805;55.852;37.644;2023-11-21T13:26:49;99089.72;;;-4.90;51.07
39051;BME280;24805;55.852;37.644;2023-11-21T13:31:53;99084.16;;;-4.98;50.61
39051;BME280;24805;55.852;37.644;2023-11-21T13:36:55;99097.28;;;-5.01;51.17
39051;BME280;24805;55.852;37.644;2023-11-21T13:42:00;99104.47;;;-5.06;52.11
39051;BME280;24805;55.852;37.644;2023-11-21T13:47:05;99095.22;;;-5.10;51.77
39051;BME280;24805;55.852;37.644;2023-11-21T13:52:08;99108.16;;;-5.10;51.83
39051;BME280;24805;55.852;37.644;2023-11-21T13:57:13;99108.41;;;-5.15;51.45
39051;BME280;24805;55.852;37.644;2023-11-21T14:02:15;99119.78;;;-5.17;51.91
39051;BME280;24805;55.852;37.644;2023-11-21T14:07:23;99133.53;;;-5.17;52.04
39051;BME280;24805;55.852;37.644;2023-11-21T14:12:38;99093.41;;;-5.38;51.54
39051;BME280;24805;55.852;37.644;2023-11-21T14:17:43;99140.91;;;-5.25;51.27
39051;BME280;24805;55.852;37.644;2023-11-21T14:22:45;99147.00;;;-5.26;51.53
39051;BME280;24805;55.852;37.644;2023-11-21T14:27:48;99158.44;;;-5.30;52.26
39051;BME280;24805;55.852;37.644;2023-11-21T14:32:50;99159.69;;;-5.37;52.21
39051;BME280;24805;55.852;37.644;2023-11-21T14:37:53;99169.50;;;-5.42;52.46
39051;BME280;24805;55.852;37.644;2023-11-21T14:42:55;99167.06;;;-5.45;52.77
39051;BME280;24805;55.852;37.644;2023-11-21T14:47:59;99169.75;;;-5.47;53.60
39051;BME280;24805;55.852;37.644;2023-11-21T14:53:07;99167.25;;;-5.48;53.61
39051;BME280;24805;55.852;37.644;2023-11-21T14:58:10;99166.41;;;-5.49;54.23
39051;BME280;24805;55.852;37.644;2023-11-21T15:03:17;99174.41;;;-5.53;54.93
39051;BME280;24805;55.852;37.644;2023-11-21T15:08:51;99177.75;;;-5.51;54.74
39051;BME280;24805;55.852;37.644;2023-11-21T15:14:19;99177.06;;;-5.55;54.41
39051;BME280;24805;55.852;37.644;2023-11-21T15:19:27;99186.84;;;-5.60;54.94
39051;BME280;24805;55.852;37.644;2023-11-21T15:24:30;99196.16;;;-5.58;56.26
39051;BME280;24805;55.852;37.644;2023-11-21T15:29:33;99190.09;;;-5.57;55.11
39051;BME280;24805;55.852;37.644;2023-11-21T15:34:37;99191.66;;;-5.54;55.96
39051;BME280;24805;55.852;37.644;2023-11-21T15:39:39;99201.09;;;-5.53;56.77
39051;BME280;24805;55.852;37.644;2023-11-21T15:44:42;99163.34;;;-5.71;56.70
39051;BME280;24805;55.852;37.644;2023-11-21T15:49:44;99197.00;;;-5.57;56.04
39051;BME280;24805;55.852;37.644;2023-11-21T15:54:51;99195.53;;;-5.61;55.43
39051;BME280;24805;55.852;37.644;2023-11-21T15:59:53;99199.03;;;-5.62;56.42
39051;BME280;24805;55.852;37.644;2023-11-21T16:04:55;99194.03;;;-5.65;55.22
39051;BME280;24805;55.852;37.644;2023-11-21T16:09:58;99165.78;;;-5.84;56.20
39051;BME280;24805;55.852;37.644;2023-11-21T16:15:00;99194.84;;;-5.65;56.19
39051;BME280;24805;55.852;37.644;2023-11-21T16:20:09;99191.69;;;-5.70;56.08
39051;BME280;24805;55.852;37.644;2023-11-21T16:25:14;99179.84;;;-5.74;56.28
39051;BME280;24805;55.852;37.644;2023-11-21T16:30:17;99191.53;;;-5.82;55.89
39051;BME280;24805;55.852;37.644;2023-11-21T16:35:25;99191.13;;;-5.91;56.21
39051;BME280;24805;55.852;37.644;2023-11-21T16:40:27;99195.63;;;-5.94;56.01
39051;BME280;24805;55.852;37.644;2023-11-21T16:45:29;99203.38;;;-5.94;56.09
39051;BME280;24805;55.852;37.644;2023-11-21T16:50:31;99204.63;;;-6.01;55.87
39051;BME280;24805;55.852;37.644;2023-11-21T16:55:34;99198.19;;;-6.10;55.85
39051;BME280;24805;55.852;37.644;2023-11-21T17:00:36;99207.00;;;-6.14;55.96
39051;BME280;24805;55.852;37.644;2023-11-21T17:05:39;99202.41;;;-6.24;55.75
39051;BME280;24805;55.852;37.644;2023-11-21T17:10:41;99213.66;;;-6.26;55.59
39051;BME280;24805;55.852;37.644;2023-11-21T17:15:44;99202.66;;;-6.29;56.30
39051;BME280;24805;55.852;37.644;2023-11-21T17:20:47;99210.78;;;-6.37;56.34
39051;BME280;24805;55.852;37.644;2023-11-21T17:25:50;99207.38;;;-6.37;55.68
39051;BME280;24805;55.852;37.644;2023-11-21T17:30:52;99214.28;;;-6.38;56.30
39051;BME280;24805;55.852;37.644;2023-11-21T17:35:55;99209.44;;;-6.44;56.43
39051;BME280;24805;55.852;37.644;2023-11-21T17:40:57;99195.19;;;-6.51;56.59
39051;BME280;24805;55.852;37.644;2023-11-21T17:46:00;99204.75;;;-6.53;56.62
39051;BME280;24805;55.852;37.644;2023-11-21T17:51:02;99206.22;;;-6.65;56.14
39051;BME280;24805;55.852;37.644;2023-11-21T17:56:05;99212.38;;;-6.67;56.36
39051;BME280;24805;55.852;37.644;2023-11-21T18:01:08;99211.69;;;-6.71;56.91
39051;BME280;24805;55.852;37.644;2023-11-21T18:06:11;99213.97;;;-6.82;56.11
39051;BME280;24805;55.852;37.644;2023-11-21T18:11:14;99220.41;;;-6.90;56.27
39051;BME280;24805;55.852;37.644;2023-11-21T18:16:17;99224.19;;;-6.98;56.98
39051;BME280;24805;55.852;37.644;2023-11-21T18:21:19;99230.38;;;-7.00;56.21
39051;BME280;24805;55.852;37.644;2023-11-21T18:26:21;99226.41;;;-7.07;57.18
39051;BME280;24805;55.852;37.644;2023-11-21T18:31:23;99221.38;;;-7.10;56.99
39051;BME280;24805;55.852;37.644;2023-11-21T18:36:25;99227.44;;;-7.11;57.65
39051;BME280;24805;55.852;37.644;2023-11-21T18:41:28;99226.84;;;-7.16;56.76
39051;BME280;24805;55.852;37.644;2023-11-21T18:46:38;99233.66;;;-7.15;57.89
39051;BME280;24805;55.852;37.644;2023-11-21T18:51:45;99227.75;;;-7.17;58.04
39051;BME280;24805;55.852;37.644;2023-11-21T18:56:47;99221.22;;;-7.24;57.46
39051;BME280;24805;55.852;37.644;2023-11-21T19:01:49;99231.75;;;-7.29;57.76
39051;BME280;24805;55.852;37.644;2023-11-21T19:06:53;99220.88;;;-7.36;57.97
39051;BME280;24805;55.852;37.644;2023-11-21T19:11:55;99232.03;;;-7.35;57.58
39051;BME280;24805;55.852;37.644;2023-11-21T19:16:58;99225.59;;;-7.44;57.16
39051;BME280;24805;55.852;37.644;2023-11-21T19:22:01;99235.66;;;-7.39;58.24
39051;BME280;24805;55.852;37.644;2023-11-21T19:27:03;99233.25;;;-7.42;57.35
39051;BME280;24805;55.852;37.644;2023-11-21T19:32:07;99227.47;;;-7.47;57.10
39051;BME280;24805;55.852;37.644;2023-11-21T19:37:09;99246.34;;;-7.47;57.24
39051;BME280;24805;55.852;37.644;2023-11-21T19:42:12;99251.50;;;-7.47;57.59
39051;BME280;24805;55.852;37.644;2023-11-21T19:47:14;99259.22;;;-7.47;56.79
39051;BME280;24805;55.852;37.644;2023-11-21T19:52:17;99253.88;;;-7.42;57.99
39051;BME280;24805;55.852;37.644;2023-11-21T19:57:19;99263.94;;;-7.38;57.52
39051;BME280;24805;55.852;37.644;2023-11-21T20:02:21;99248.41;;;-7.36;57.82
39051;BME280;24805;55.852;37.644;2023-11-21T20:07:24;99227.94;;;-7.39;57.74
39051;BME280;24805;55.852;37.644;2023-11-21T20:12:28;99246.91;;;-7.40;57.61
39051;BME280;24805;55.852;37.644;2023-11-21T20:17:33;99256.50;;;-7.44;58.34
39051;BME280;24805;55.852;37.644;2023-11-21T20:22:35;99255.06;;;-7.49;57.48
39051;BME280;24805;55.852;37.644;2023-11-21T20:27:37;99245.53;;;-7.66;57.19
39051;BME280;24805;55.852;37.644;2023-11-21T20:32:40;99262.84;;;-7.51;57.36
39051;BME280;24805;55.852;37.644;2023-11-21T20:37:42;99256.72;;;-7.48;58.90
39051;BME280;24805;55.852;37.644;2023-11-21T20:42:44;99231.69;;;-7.63;58.77
39051;BME280;24805;55.852;37.644;2023-11-21T20:47:48;99269.59;;;-7.48;58.48
39051;BME280;24805;55.852;37.644;2023-11-21T20:52:51;99276.50;;;-7.49;58.57
39051;BME280;24805;55.852;37.644;2023-11-21T20:57:54;99271.41;;;-7.50;58.67
39051;BME280;24805;55.852;37.644;2023-11-21T21:02:57;99282.56;;;-7.50;59.09
39051;BME280;24805;55.852;37.644;2023-11-21T21:07:59;99279.00;;;-7.47;58.59
39051;BME280;24805;55.852;37.644;2023-11-21T21:13:02;99285.91;;;-7.48;58.39
39051;BME280;24805;55.852;37.644;2023-11-21T21:18:04;99287.78;;;-7.51;58.65
39051;BME280;24805;55.852;37.644;2023-11-21T21:23:08;99293.06;;;-7.54;59.19
39051;BME280;24805;55.852;37.644;2023-11-21T21:28:10;99287.22;;;-7.58;58.70
39051;BME280;24805;55.852;37.644;2023-11-21T21:33:12;99283.13;;;-7.62;58.60
39051;BME280;24805;55.852;37.644;2023-11-21T21:38:14;99295.09;;;-7.61;58.49
39051;BME280;24805;55.852;37.644;2023-11-21T21:43:17;99283.34;;;-7.67;58.28
39051;BME280;24805;55.852;37.644;2023-11-21T21:48:19;99287.50;;;-7.64;59.34
39051;BME280;24805;55.852;37.644;2023-11-21T21:53:22;99285.91;;;-7.67;58.62
39051;BME280;24805;55.852;37.644;2023-11-21T21:58:24;99278.94;;;-7.65;59.66
39051;BME280;24805;55.852;37.644;2023-11-21T22:03:28;99286.69;;;-7.65;59.63
39051;BME280;24805;55.852;37.644;2023-11-21T22:08:31;99284.94;;;-7.64;58.83
39051;BME280;24805;55.852;37.644;2023-11-21T22:13:35;99279.59;;;-7.59;59.25
39051;BME280;24805;55.852;37.644;2023-11-21T22:18:37;99274.06;;;-7.52;59.77
39051;BME280;24805;55.852;37.644;2023-11-21T22:23:40;99284.88;;;-7.44;59.71
39051;BME280;24805;55.852;37.644;2023-11-21T22:28:42;99268.34;;;-7.40;59.27
39051;BME280;24805;55.852;37.644;2023-11-21T22:33:45;99282.22;;;-7.42;59.31
39051;BME280;24805;55.852;37.644;2023-11-21T22:38:47;99279.47;;;-7.39;59.23
39051;BME280;24805;55.852;37.644;2023-11-21T22:43:49;99282.19;;;-7.23;59.53
39051;BME280;24805;55.852;37.644;2023-11-21T22:48:51;99294.78;;;-7.17;59.39
39051;BME280;24805;55.852;37.644;2023-11-21T22:53:53;99303.69;;;-7.06;59.13
39051;BME280;24805;55.852;37.644;2023-11-21T22:58:55;99307.47;;;-6.96;59.11
39051;BME280;24805;55.852;37.644;2023-11-21T23:03:58;99304.34;;;-6.83;58.67
39051;BME280;24805;55.852;37.644;2023-11-21T23:09:00;99309.03;;;-6.74;59.25
39051;BME280;24805;55.852;37.644;2023-11-21T23:14:02;99313.69;;;-6.64;58.20
39051;BME280;24805;55.852;37.644;2023-11-21T23:19:05;99314.38;;;-6.60;58.42
39051;BME280;24805;55.852;37.644;2023-11-21T23:24:07;99315.78;;;-6.54;57.90
39051;BME280;24805;55.852;37.644;2023-11-21T23:29:12;99324.28;;;-6.52;57.36
39051;BME280;24805;55.852;37.644;2023-11-21T23:34:14;99296.66;;;-6.68;58.20
39051;BME280;24805;55.852;37.644;2023-11-21T23:39:16;99313.97;;;-6.52;58.09
39051;BME280;24805;55.852;37.644;2023-11-21T23:44:18;99313.22;;;-6.54;58.23
39051;BME280;24805;55.852;37.644;2023-11-21T23:49:22;99307.00;;;-6.50;58.39
39051;BME280;24805;55.852;37.644;2023-11-21T23:54:28;99279.38;;;-6.66;57.67
39051;BME280;24805;55.852;37.644;2023-11-21T23:59:30;99323.84;;;-6.43;57.21
